sensor_id;sensor_type;location;lat;lon;timestamp;temperature;humidity
66708;DHT22;53622;0.000;0.000;2023-08-20T00:00:15;25.70;54.10
66708;DHT22;53622;0.000;0.000;2023-08-20T00:02:46;25.70;54.40
66708;DHT22;53622;0.000;0.000;2023-08-20T00:05:19;25.70;54.50
66708;DHT22;53622;0.000;0.000;2023-08-20T00:07:48;25.60;54.70
66708;DHT22;53622;0.000;0.000;2023-08-20T00:10:19;25.60;54.90
66708;DHT22;53622;0.000;0.000;2023-08-20T00:12:48;25.60;54.90
66708;DHT22;53622;0.000;0.000;2023-08-20T00:15:18;25.60;55.00
66708;DHT22;53622;0.000;0.000;2023-08-20T00:17:50;25.50;54.90
66708;DHT22;53622;0.000;0.000;2023-08-20T00:20:20;25.50;55.10
66708;DHT22;53622;0.000;0.000;2023-08-20T00:22:50;25.50;55.00
66708;DHT22;53622;0.000;0.000;2023-08-20T00:25:22;25.50;54.90
66708;DHT22;53622;0.000;0.000;2023-08-20T00:27:51;25.50;54.90
66708;DHT22;53622;0.000;0.000;2023-08-20T00:30:20;25.50;54.90
66708;DHT22;53622;0.000;0.000;2023-08-20T00:32:50;25.50;54.90
66708;DHT22;53622;0.000;0.000;2023-08-20T00:35:19;25.50;54.90
66708;DHT22;53622;0.000;0.000;2023-08-20T00:37:50;25.50;55.00
66708;DHT22;53622;0.000;0.000;2023-08-20T00:40:21;25.50;55.00
66708;DHT22;53622;0.000;0.000;2023-08-20T00:42:50;25.60;55.00
66708;DHT22;53622;0.000;0.000;2023-08-20T00:45:20;25.60;54.80
66708;DHT22;53622;0.000;0.000;2023-08-20T00:47:50;25.60;55.30
66708;DHT22;53622;0.000;0.000;2023-08-20T00:50:20;25.60;55.40
66708;DHT22;53622;0.000;0.000;2023-08-20T00:52:49;25.50;55.30
66708;DHT22;53622;0.000;0.000;2023-08-20T00:55:20;25.50;55.50
66708;DHT22;53622;0.000;0.000;2023-08-20T00:57:50;25.50;55.40
66708;DHT22;53622;0.000;0.000;2023-08-20T01:00:21;25.50;55.20
66708;DHT22;53622;0.000;0.000;2023-08-20T01:02:54;25.50;55.00
66708;DHT22;53622;0.000;0.000;2023-08-20T01:05:24;25.50;54.90
66708;DHT22;53622;0.000;0.000;2023-08-20T01:08:12;25.50;54.80
66708;DHT22;53622;0.000;0.000;2023-08-20T01:10:55;25.50;54.80
66708;DHT22;53622;0.000;0.000;2023-08-20T01:13:25;25.50;54.90
66708;DHT22;53622;0.000;0.000;2023-08-20T01:15:55;25.40;55.00
66708;DHT22;53622;0.000;0.000;2023-08-20T01:18:24;25.40;55.00
66708;DHT22;53622;0.000;0.000;2023-08-20T01:20:58;25.40;55.00
66708;DHT22;53622;0.000;0.000;2023-08-20T01:23:48;25.40;54.90
66708;DHT22;53622;0.000;0.000;2023-08-20T01:26:46;25.40;55.00
66708;DHT22;53622;0.000;0.000;2023-08-20T01:29:20;25.40;55.10
66708;DHT22;53622;0.000;0.000;2023-08-20T01:31:50;25.30;55.10
66708;DHT22;53622;0.000;0.000;2023-08-20T01:34:21;25.30;55.20
66708;DHT22;53622;0.000;0.000;2023-08-20T01:36:51;25.40;55.20
66708;DHT22;53622;0.000;0.000;2023-08-20T01:39:20;25.40;55.20
66708;DHT22;53622;0.000;0.000;2023-08-20T01:41:49;25.30;55.40
66708;DHT22;53622;0.000;0.000;2023-08-20T01:44:20;25.30;55.30
66708;DHT22;53622;0.000;0.000;2023-08-20T01:46:49;25.30;55.50
66708;DHT22;53622;0.000;0.000;2023-08-20T01:49:19;25.20;55.50
66708;DHT22;53622;0.000;0.000;2023-08-20T01:51:49;25.20;55.60
66708;DHT22;53622;0.000;0.000;2023-08-20T01:54:18;25.20;55.70
66708;DHT22;53622;0.000;0.000;2023-08-20T01:56:47;25.20;55.70
66708;DHT22;53622;0.000;0.000;2023-08-20T01:59:17;25.20;55.90
66708;DHT22;53622;0.000;0.000;2023-08-20T02:01:47;25.20;55.70
66708;DHT22;53622;0.000;0.000;2023-08-20T02:04:17;25.20;55.80
66708;DHT22;53622;0.000;0.000;2023-08-20T02:06:46;25.20;55.90
66708;DHT22;53622;0.000;0.000;2023-08-20T02:09:15;25.10;56.00
66708;DHT22;53622;0.000;0.000;2023-08-20T02:11:47;25.10;56.10
66708;DHT22;53622;0.000;0.000;2023-08-20T02:14:16;25.00;56.00
66708;DHT22;53622;0.000;0.000;2023-08-20T02:16:47;25.00;56.30
66708;DHT22;53622;0.000;0.000;2023-08-20T02:19:16;25.00;56.30
66708;DHT22;53622;0.000;0.000;2023-08-20T02:21:46;25.00;56.40
66708;DHT22;53622;0.000;0.000;2023-08-20T02:24:15;25.00;56.30
66708;DHT22;53622;0.000;0.000;2023-08-20T02:26:44;25.00;56.30
66708;DHT22;53622;0.000;0.000;2023-08-20T02:29:14;25.00;56.40
66708;DHT22;53622;0.000;0.000;2023-08-20T02:31:43;25.00;56.40
66708;DHT22;53622;0.000;0.000;2023-08-20T02:34:14;25.00;56.40
66708;DHT22;53622;0.000;0.000;2023-08-20T02:36:43;24.90;56.40
66708;DHT22;53622;0.000;0.000;2023-08-20T02:39:13;24.90;56.60
66708;DHT22;53622;0.000;0.000;2023-08-20T02:41:44;24.80;56.60
66708;DHT22;53622;0.000;0.000;2023-08-20T02:44:14;24.90;56.60
66708;DHT22;53622;0.000;0.000;2023-08-20T02:46:43;24.90;56.40
66708;DHT22;53622;0.000;0.000;2023-08-20T02:49:14;24.90;56.40
66708;DHT22;53622;0.000;0.000;2023-08-20T02:51:43;24.80;56.50
66708;DHT22;53622;0.000;0.000;2023-08-20T02:54:13;24.80;56.60
66708;DHT22;53622;0.000;0.000;2023-08-20T02:56:42;24.70;56.80
66708;DHT22;53622;0.000;0.000;2023-08-20T02:59:11;24.70;56.80
66708;DHT22;53622;0.000;0.000;2023-08-20T03:01:40;24.70;56.70
66708;DHT22;53622;0.000;0.000;2023-08-20T03:04:10;24.70;56.70
66708;DHT22;53622;0.000;0.000;2023-08-20T03:06:41;24.70;56.70
66708;DHT22;53622;0.000;0.000;2023-08-20T03:09:10;24.70;56.70
66708;DHT22;53622;0.000;0.000;2023-08-20T03:11:39;24.70;56.80
66708;DHT22;53622;0.000;0.000;2023-08-20T03:14:09;24.70;56.80
66708;DHT22;53622;0.000;0.000;2023-08-20T03:16:38;24.70;57.00
66708;DHT22;53622;0.000;0.000;2023-08-20T03:19:07;24.70;56.90
66708;DHT22;53622;0.000;0.000;2023-08-20T03:21:36;24.60;56.90
66708;DHT22;53622;0.000;0.000;2023-08-20T03:24:08;24.60;57.00
66708;DHT22;53622;0.000;0.000;2023-08-20T03:26:37;24.50;57.30
66708;DHT22;53622;0.000;0.000;2023-08-20T03:29:07;24.50;57.10
66708;DHT22;53622;0.000;0.000;2023-08-20T03:31:38;24.50;57.10
66708;DHT22;53622;0.000;0.000;2023-08-20T03:34:07;24.50;57.20
66708;DHT22;53622;0.000;0.000;2023-08-20T03:36:38;24.40;57.40
66708;DHT22;53622;0.000;0.000;2023-08-20T03:39:08;24.40;57.50
66708;DHT22;53622;0.000;0.000;2023-08-20T03:41:37;24.40;57.40
66708;DHT22;53622;0.000;0.000;2023-08-20T03:44:07;24.40;57.30
66708;DHT22;53622;0.000;0.000;2023-08-20T03:46:36;24.40;57.30
66708;DHT22;53622;0.000;0.000;2023-08-20T03:49:05;24.40;57.30
66708;DHT22;53622;0.000;0.000;2023-08-20T03:51:34;24.40;57.20
66708;DHT22;53622;0.000;0.000;2023-08-20T03:54:04;24.40;57.00
66708;DHT22;53622;0.000;0.000;2023-08-20T03:56:36;24.40;57.10
66708;DHT22;53622;0.000;0.000;2023-08-20T03:59:05;24.40;57.10
66708;DHT22;53622;0.000;0.000;2023-08-20T04:01:35;24.40;57.00
66708;DHT22;53622;0.000;0.000;2023-08-20T04:04:05;24.40;57.00
66708;DHT22;53622;0.000;0.000;2023-08-20T04:06:34;24.40;57.10
66708;DHT22;53622;0.000;0.000;2023-08-20T04:09:04;24.40;57.10
66708;DHT22;53622;0.000;0.000;2023-08-20T04:11:35;24.40;57.10
66708;DHT22;53622;0.000;0.000;2023-08-20T04:14:04;24.30;57.10
66708;DHT22;53622;0.000;0.000;2023-08-20T04:16:34;24.30;57.20
66708;DHT22;53622;0.000;0.000;2023-08-20T04:19:03;24.30;57.20
66708;DHT22;53622;0.000;0.000;2023-08-20T04:21:33;24.30;57.20
66708;DHT22;53622;0.000;0.000;2023-08-20T04:24:02;24.30;57.20
66708;DHT22;53622;0.000;0.000;2023-08-20T04:26:31;24.30;57.40
66708;DHT22;53622;0.000;0.000;2023-08-20T04:29:03;24.30;57.40
66708;DHT22;53622;0.000;0.000;2023-08-20T04:31:32;24.30;57.20
66708;DHT22;53622;0.000;0.000;2023-08-20T04:34:07;24.30;57.20
66708;DHT22;53622;0.000;0.000;2023-08-20T04:36:40;24.30;57.20
66708;DHT22;53622;0.000;0.000;2023-08-20T04:39:10;24.30;57.10
66708;DHT22;53622;0.000;0.000;2023-08-20T04:41:44;24.30;57.20
66708;DHT22;53622;0.000;0.000;2023-08-20T04:44:17;24.30;57.30
66708;DHT22;53622;0.000;0.000;2023-08-20T04:46:48;24.20;57.50
66708;DHT22;53622;0.000;0.000;2023-08-20T04:49:18;24.20;57.50
66708;DHT22;53622;0.000;0.000;2023-08-20T04:51:47;24.20;57.70
66708;DHT22;53622;0.000;0.000;2023-08-20T04:54:17;24.20;57.70
66708;DHT22;53622;0.000;0.000;2023-08-20T04:56:47;24.20;57.90
66708;DHT22;53622;0.000;0.000;2023-08-20T04:59:17;24.10;57.90
66708;DHT22;53622;0.000;0.000;2023-08-20T05:02:07;24.10;57.80
66708;DHT22;53622;0.000;0.000;2023-08-20T05:04:41;24.10;57.80
66708;DHT22;53622;0.000;0.000;2023-08-20T05:07:10;24.10;57.90
66708;DHT22;53622;0.000;0.000;2023-08-20T05:09:39;24.10;58.00
66708;DHT22;53622;0.000;0.000;2023-08-20T05:12:09;24.10;58.00
66708;DHT22;53622;0.000;0.000;2023-08-20T05:14:39;24.10;57.90
66708;DHT22;53622;0.000;0.000;2023-08-20T05:17:09;24.10;58.10
66708;DHT22;53622;0.000;0.000;2023-08-20T05:19:38;24.10;58.30
66708;DHT22;53622;0.000;0.000;2023-08-20T05:22:09;24.10;58.60
66708;DHT22;53622;0.000;0.000;2023-08-20T05:24:39;24.10;58.60
66708;DHT22;53622;0.000;0.000;2023-08-20T05:27:11;24.10;58.60
66708;DHT22;53622;0.000;0.000;2023-08-20T05:29:45;24.10;58.70
66708;DHT22;53622;0.000;0.000;2023-08-20T05:32:16;24.10;58.70
66708;DHT22;53622;0.000;0.000;2023-08-20T05:34:45;24.10;59.00
66708;DHT22;53622;0.000;0.000;2023-08-20T05:37:14;24.10;59.10
66708;DHT22;53622;0.000;0.000;2023-08-20T05:39:44;24.10;59.00
66708;DHT22;53622;0.000;0.000;2023-08-20T05:42:14;24.10;59.60
66708;DHT22;53622;0.000;0.000;2023-08-20T05:44:52;24.10;59.00
66708;DHT22;53622;0.000;0.000;2023-08-20T05:47:26;24.00;59.10
66708;DHT22;53622;0.000;0.000;2023-08-20T05:49:56;24.10;59.20
66708;DHT22;53622;0.000;0.000;2023-08-20T05:52:25;24.10;59.30
66708;DHT22;53622;0.000;0.000;2023-08-20T05:54:55;24.10;59.30
66708;DHT22;53622;0.000;0.000;2023-08-20T05:57:24;24.10;59.60
66708;DHT22;53622;0.000;0.000;2023-08-20T05:59:56;24.10;59.50
66708;DHT22;53622;0.000;0.000;2023-08-20T06:02:25;24.10;59.60
66708;DHT22;53622;0.000;0.000;2023-08-20T06:04:54;24.10;59.90
66708;DHT22;53622;0.000;0.000;2023-08-20T06:07:24;24.10;60.00
66708;DHT22;53622;0.000;0.000;2023-08-20T06:09:56;24.10;60.30
66708;DHT22;53622;0.000;0.000;2023-08-20T06:12:26;24.10;59.80
66708;DHT22;53622;0.000;0.000;2023-08-20T06:14:57;24.10;59.70
66708;DHT22;53622;0.000;0.000;2023-08-20T06:17:26;24.20;59.70
66708;DHT22;53622;0.000;0.000;2023-08-20T06:19:55;24.20;59.80
66708;DHT22;53622;0.000;0.000;2023-08-20T06:22:24;24.20;60.00
66708;DHT22;53622;0.000;0.000;2023-08-20T06:24:54;24.20;60.10
66708;DHT22;53622;0.000;0.000;2023-08-20T06:27:23;24.20;60.50
66708;DHT22;53622;0.000;0.000;2023-08-20T06:29:52;24.30;60.50
66708;DHT22;53622;0.000;0.000;2023-08-20T06:32:23;24.30;60.20
66708;DHT22;53622;0.000;0.000;2023-08-20T06:34:53;24.30;60.20
66708;DHT22;53622;0.000;0.000;2023-08-20T06:37:22;24.40;60.40
66708;DHT22;53622;0.000;0.000;2023-08-20T06:39:51;24.40;60.10
66708;DHT22;53622;0.000;0.000;2023-08-20T06:42:20;24.40;60.00
66708;DHT22;53622;0.000;0.000;2023-08-20T06:44:50;24.40;59.90
66708;DHT22;53622;0.000;0.000;2023-08-20T06:47:19;24.50;59.80
66708;DHT22;53622;0.000;0.000;2023-08-20T06:49:50;24.50;59.80
66708;DHT22;53622;0.000;0.000;2023-08-20T06:52:20;24.60;59.80
66708;DHT22;53622;0.000;0.000;2023-08-20T06:54:49;24.60;59.50
66708;DHT22;53622;0.000;0.000;2023-08-20T06:57:18;24.70;59.40
66708;DHT22;53622;0.000;0.000;2023-08-20T06:59:47;24.70;59.60
66708;DHT22;53622;0.000;0.000;2023-08-20T07:02:17;24.70;59.50
66708;DHT22;53622;0.000;0.000;2023-08-20T07:04:46;24.80;59.60
66708;DHT22;53622;0.000;0.000;2023-08-20T07:07:17;24.80;59.60
66708;DHT22;53622;0.000;0.000;2023-08-20T07:09:46;24.80;59.50
66708;DHT22;53622;0.000;0.000;2023-08-20T07:12:15;24.80;59.50
66708;DHT22;53622;0.000;0.000;2023-08-20T07:14:45;24.90;59.80
66708;DHT22;53622;0.000;0.000;2023-08-20T07:17:14;24.90;59.50
66708;DHT22;53622;0.000;0.000;2023-08-20T07:19:44;25.00;59.70
66708;DHT22;53622;0.000;0.000;2023-08-20T07:22:13;25.00;59.80
66708;DHT22;53622;0.000;0.000;2023-08-20T07:24:44;25.00;60.00
66708;DHT22;53622;0.000;0.000;2023-08-20T07:27:13;25.10;60.20
66708;DHT22;53622;0.000;0.000;2023-08-20T07:29:43;25.10;60.20
66708;DHT22;53622;0.000;0.000;2023-08-20T07:32:15;25.20;60.80
66708;DHT22;53622;0.000;0.000;2023-08-20T07:34:45;25.10;60.40
66708;DHT22;53622;0.000;0.000;2023-08-20T07:37:14;25.10;60.30
66708;DHT22;53622;0.000;0.000;2023-08-20T07:39:45;25.20;60.40
66708;DHT22;53622;0.000;0.000;2023-08-20T07:42:14;25.20;60.60
66708;DHT22;53622;0.000;0.000;2023-08-20T07:44:46;25.20;60.40
66708;DHT22;53622;0.000;0.000;2023-08-20T07:47:15;25.20;60.50
66708;DHT22;53622;0.000;0.000;2023-08-20T07:49:47;25.20;60.30
66708;DHT22;53622;0.000;0.000;2023-08-20T07:52:17;25.30;60.20
66708;DHT22;53622;0.000;0.000;2023-08-20T07:54:47;25.30;60.00
66708;DHT22;53622;0.000;0.000;2023-08-20T07:57:21;25.30;60.00
66708;DHT22;53622;0.000;0.000;2023-08-20T07:59:51;25.30;60.60
66708;DHT22;53622;0.000;0.000;2023-08-20T08:02:22;25.30;60.00
66708;DHT22;53622;0.000;0.000;2023-08-20T08:04:53;25.30;59.90
66708;DHT22;53622;0.000;0.000;2023-08-20T08:07:22;25.30;59.90
66708;DHT22;53622;0.000;0.000;2023-08-20T08:09:53;25.30;59.90
66708;DHT22;53622;0.000;0.000;2023-08-20T08:12:22;25.40;59.80
66708;DHT22;53622;0.000;0.000;2023-08-20T08:14:51;25.40;59.80
66708;DHT22;53622;0.000;0.000;2023-08-20T08:17:21;25.40;59.80
66708;DHT22;53622;0.000;0.000;2023-08-20T08:19:50;25.40;60.10
66708;DHT22;53622;0.000;0.000;2023-08-20T08:22:21;25.40;60.00
66708;DHT22;53622;0.000;0.000;2023-08-20T08:24:51;25.40;60.00
66708;DHT22;53622;0.000;0.000;2023-08-20T08:27:24;25.40;59.70
66708;DHT22;53622;0.000;0.000;2023-08-20T08:29:57;25.40;59.90
66708;DHT22;53622;0.000;0.000;2023-08-20T08:32:26;25.40;60.10
66708;DHT22;53622;0.000;0.000;2023-08-20T08:34:55;25.30;60.10
66708;DHT22;53622;0.000;0.000;2023-08-20T08:37:25;25.30;60.20
66708;DHT22;53622;0.000;0.000;2023-08-20T08:39:54;25.30;60.20
66708;DHT22;53622;0.000;0.000;2023-08-20T08:42:25;25.30;60.20
66708;DHT22;53622;0.000;0.000;2023-08-20T08:44:55;25.30;60.20
66708;DHT22;53622;0.000;0.000;2023-08-20T08:47:28;25.30;60.20
66708;DHT22;53622;0.000;0.000;2023-08-20T08:49:58;25.40;60.60
66708;DHT22;53622;0.000;0.000;2023-08-20T08:52:28;25.40;60.40
66708;DHT22;53622;0.000;0.000;2023-08-20T08:54:57;25.50;60.20
66708;DHT22;53622;0.000;0.000;2023-08-20T08:57:28;25.50;60.20
66708;DHT22;53622;0.000;0.000;2023-08-20T08:59:57;25.60;60.30
66708;DHT22;53622;0.000;0.000;2023-08-20T09:02:27;25.60;60.00
66708;DHT22;53622;0.000;0.000;2023-08-20T09:04:56;25.60;60.10
66708;DHT22;53622;0.000;0.000;2023-08-20T09:07:26;25.60;60.80
66708;DHT22;53622;0.000;0.000;2023-08-20T09:09:58;25.60;60.80
66708;DHT22;53622;0.000;0.000;2023-08-20T09:12:34;25.60;60.70
66708;DHT22;53622;0.000;0.000;2023-08-20T09:15:10;25.60;60.90
66708;DHT22;53622;0.000;0.000;2023-08-20T09:17:46;25.50;61.20
66708;DHT22;53622;0.000;0.000;2023-08-20T09:20:16;25.50;61.20
66708;DHT22;53622;0.000;0.000;2023-08-20T09:22:53;25.50;61.50
66708;DHT22;53622;0.000;0.000;2023-08-20T09:25:23;25.60;61.70
66708;DHT22;53622;0.000;0.000;2023-08-20T09:27:54;25.60;61.90
66708;DHT22;53622;0.000;0.000;2023-08-20T09:30:25;25.60;61.70
66708;DHT22;53622;0.000;0.000;2023-08-20T09:33:06;25.60;61.80
66708;DHT22;53622;0.000;0.000;2023-08-20T09:35:36;25.60;61.90
66708;DHT22;53622;0.000;0.000;2023-08-20T09:38:06;25.60;61.90
66708;DHT22;53622;0.000;0.000;2023-08-20T09:40:36;25.60;61.60
66708;DHT22;53622;0.000;0.000;2023-08-20T09:43:09;25.60;61.80
66708;DHT22;53622;0.000;0.000;2023-08-20T09:45:40;25.70;61.80
66708;DHT22;53622;0.000;0.000;2023-08-20T09:48:11;25.60;61.50
66708;DHT22;53622;0.000;0.000;2023-08-20T09:50:43;25.60;61.70
66708;DHT22;53622;0.000;0.000;2023-08-20T09:53:21;25.70;61.70
66708;DHT22;53622;0.000;0.000;2023-08-20T09:55:56;25.70;61.70
66708;DHT22;53622;0.000;0.000;2023-08-20T09:58:31;25.60;61.50
66708;DHT22;53622;0.000;0.000;2023-08-20T10:01:01;25.70;61.70
66708;DHT22;53622;0.000;0.000;2023-08-20T10:03:31;25.70;61.60
66708;DHT22;53622;0.000;0.000;2023-08-20T10:06:02;25.70;61.60
66708;DHT22;53622;0.000;0.000;2023-08-20T10:08:33;25.70;61.60
66708;DHT22;53622;0.000;0.000;2023-08-20T10:11:03;25.70;61.50
66708;DHT22;53622;0.000;0.000;2023-08-20T10:13:34;25.70;61.40
66708;DHT22;53622;0.000;0.000;2023-08-20T10:16:03;25.70;61.20
66708;DHT22;53622;0.000;0.000;2023-08-20T10:18:42;25.70;61.20
66708;DHT22;53622;0.000;0.000;2023-08-20T10:24:55;25.70;61.10
66708;DHT22;53622;0.000;0.000;2023-08-20T10:27:40;25.70;61.40
66708;DHT22;53622;0.000;0.000;2023-08-20T10:30:17;25.70;61.10
66708;DHT22;53622;0.000;0.000;2023-08-20T10:32:51;25.70;61.10
66708;DHT22;53622;0.000;0.000;2023-08-20T10:35:24;25.70;61.00
66708;DHT22;53622;0.000;0.000;2023-08-20T10:38:05;25.70;60.90
66708;DHT22;53622;0.000;0.000;2023-08-20T10:40:57;25.70;60.70
66708;DHT22;53622;0.000;0.000;2023-08-20T10:43:28;25.80;60.30
66708;DHT22;53622;0.000;0.000;2023-08-20T10:46:14;25.90;60.00
66708;DHT22;53622;0.000;0.000;2023-08-20T10:48:48;26.00;59.90
66708;DHT22;53622;0.000;0.000;2023-08-20T10:51:19;25.90;59.80
66708;DHT22;53622;0.000;0.000;2023-08-20T10:54:05;25.90;59.90
66708;DHT22;53622;0.000;0.000;2023-08-20T10:56:43;25.90;60.00
66708;DHT22;53622;0.000;0.000;2023-08-20T10:59:15;25.80;60.00
66708;DHT22;53622;0.000;0.000;2023-08-20T11:01:47;25.80;60.00
66708;DHT22;53622;0.000;0.000;2023-08-20T11:04:18;25.80;60.00
66708;DHT22;53622;0.000;0.000;2023-08-20T11:06:52;25.80;60.00
66708;DHT22;53622;0.000;0.000;2023-08-20T11:09:22;25.90;60.10
66708;DHT22;53622;0.000;0.000;2023-08-20T11:11:52;25.80;60.10
66708;DHT22;53622;0.000;0.000;2023-08-20T11:14:22;25.80;60.90
66708;DHT22;53622;0.000;0.000;2023-08-20T11:16:53;25.80;60.10
66708;DHT22;53622;0.000;0.000;2023-08-20T11:19:24;25.80;60.10
66708;DHT22;53622;0.000;0.000;2023-08-20T11:21:54;25.80;60.10
66708;DHT22;53622;0.000;0.000;2023-08-20T11:24:23;25.80;60.10
66708;DHT22;53622;0.000;0.000;2023-08-20T11:26:53;25.80;60.00
66708;DHT22;53622;0.000;0.000;2023-08-20T11:29:25;25.80;60.10
66708;DHT22;53622;0.000;0.000;2023-08-20T11:31:56;25.80;60.10
66708;DHT22;53622;0.000;0.000;2023-08-20T11:34:29;25.80;60.00
66708;DHT22;53622;0.000;0.000;2023-08-20T11:37:00;25.90;60.00
66708;DHT22;53622;0.000;0.000;2023-08-20T11:39:30;25.90;60.00
66708;DHT22;53622;0.000;0.000;2023-08-20T11:42:00;25.90;60.10
66708;DHT22;53622;0.000;0.000;2023-08-20T11:44:42;25.90;60.50
66708;DHT22;53622;0.000;0.000;2023-08-20T11:47:15;25.90;61.10
66708;DHT22;53622;0.000;0.000;2023-08-20T11:49:45;25.90;61.00
66708;DHT22;53622;0.000;0.000;2023-08-20T11:52:15;26.00;60.80
66708;DHT22;53622;0.000;0.000;2023-08-20T11:54:54;26.00;60.70
66708;DHT22;53622;0.000;0.000;2023-08-20T11:57:48;26.00;60.80
66708;DHT22;53622;0.000;0.000;2023-08-20T12:00:24;26.00;61.00
66708;DHT22;53622;0.000;0.000;2023-08-20T12:02:57;26.00;60.80
66708;DHT22;53622;0.000;0.000;2023-08-20T12:05:28;26.00;60.90
66708;DHT22;53622;0.000;0.000;2023-08-20T12:07:59;26.00;60.60
66708;DHT22;53622;0.000;0.000;2023-08-20T12:10:33;26.00;60.70
66708;DHT22;53622;0.000;0.000;2023-08-20T12:13:08;26.00;61.00
66708;DHT22;53622;0.000;0.000;2023-08-20T12:15:39;26.00;60.80
66708;DHT22;53622;0.000;0.000;2023-08-20T12:18:10;26.00;61.00
66708;DHT22;53622;0.000;0.000;2023-08-20T12:20:39;26.00;60.80
66708;DHT22;53622;0.000;0.000;2023-08-20T12:23:09;26.00;61.00
66708;DHT22;53622;0.000;0.000;2023-08-20T12:25:40;26.00;61.00
66708;DHT22;53622;0.000;0.000;2023-08-20T12:28:11;26.00;61.00
66708;DHT22;53622;0.000;0.000;2023-08-20T12:30:40;26.00;61.00
66708;DHT22;53622;0.000;0.000;2023-08-20T12:33:11;26.00;61.10
66708;DHT22;53622;0.000;0.000;2023-08-20T12:35:42;26.00;61.00
66708;DHT22;53622;0.000;0.000;2023-08-20T12:38:11;26.00;61.20
66708;DHT22;53622;0.000;0.000;2023-08-20T12:40:41;26.10;61.20
66708;DHT22;53622;0.000;0.000;2023-08-20T12:43:13;26.10;60.90
66708;DHT22;53622;0.000;0.000;2023-08-20T12:45:42;26.20;60.90
66708;DHT22;53622;0.000;0.000;2023-08-20T12:48:14;26.20;60.80
66708;DHT22;53622;0.000;0.000;2023-08-20T12:50:43;26.20;60.70
66708;DHT22;53622;0.000;0.000;2023-08-20T12:53:12;26.20;61.50
66708;DHT22;53622;0.000;0.000;2023-08-20T12:55:42;26.30;60.70
66708;DHT22;53622;0.000;0.000;2023-08-20T12:58:11;26.30;60.70
66708;DHT22;53622;0.000;0.000;2023-08-20T13:00:41;26.30;61.20
66708;DHT22;53622;0.000;0.000;2023-08-20T13:03:13;26.30;61.30
66708;DHT22;53622;0.000;0.000;2023-08-20T13:05:43;26.30;61.40
66708;DHT22;53622;0.000;0.000;2023-08-20T13:08:13;26.30;61.40
66708;DHT22;53622;0.000;0.000;2023-08-20T13:10:50;26.40;61.40
66708;DHT22;53622;0.000;0.000;2023-08-20T13:13:44;26.40;61.30
66708;DHT22;53622;0.000;0.000;2023-08-20T13:16:14;26.40;61.20
66708;DHT22;53622;0.000;0.000;2023-08-20T13:18:47;26.40;61.10
66708;DHT22;53622;0.000;0.000;2023-08-20T13:21:18;26.40;61.90
66708;DHT22;53622;0.000;0.000;2023-08-20T13:23:50;26.40;61.00
66708;DHT22;53622;0.000;0.000;2023-08-20T13:26:21;26.40;61.20
66708;DHT22;53622;0.000;0.000;2023-08-20T13:28:53;26.40;61.40
66708;DHT22;53622;0.000;0.000;2023-08-20T13:31:23;26.50;61.40
66708;DHT22;53622;0.000;0.000;2023-08-20T13:33:54;26.40;62.10
66708;DHT22;53622;0.000;0.000;2023-08-20T13:36:26;26.50;61.40
66708;DHT22;53622;0.000;0.000;2023-08-20T13:38:55;26.50;61.30
66708;DHT22;53622;0.000;0.000;2023-08-20T13:41:25;26.50;61.40
66708;DHT22;53622;0.000;0.000;2023-08-20T13:43:54;26.50;61.30
66708;DHT22;53622;0.000;0.000;2023-08-20T13:46:24;26.50;61.40
66708;DHT22;53622;0.000;0.000;2023-08-20T13:48:55;26.50;61.50
66708;DHT22;53622;0.000;0.000;2023-08-20T13:51:24;26.50;61.50
66708;DHT22;53622;0.000;0.000;2023-08-20T13:53:53;26.70;61.10
66708;DHT22;53622;0.000;0.000;2023-08-20T13:56:23;26.70;60.90
66708;DHT22;53622;0.000;0.000;2023-08-20T13:58:53;26.70;61.10
66708;DHT22;53622;0.000;0.000;2023-08-20T14:01:23;26.60;61.00
66708;DHT22;53622;0.000;0.000;2023-08-20T14:03:52;26.60;61.00
66708;DHT22;53622;0.000;0.000;2023-08-20T14:06:23;26.60;61.30
66708;DHT22;53622;0.000;0.000;2023-08-20T14:08:58;26.60;61.30
66708;DHT22;53622;0.000;0.000;2023-08-20T14:11:32;26.60;61.20
66708;DHT22;53622;0.000;0.000;2023-08-20T14:14:02;26.60;61.40
66708;DHT22;53622;0.000;0.000;2023-08-20T14:16:31;26.60;61.60
66708;DHT22;53622;0.000;0.000;2023-08-20T14:19:00;26.60;61.80
66708;DHT22;53622;0.000;0.000;2023-08-20T14:21:31;26.60;62.20
66708;DHT22;53622;0.000;0.000;2023-08-20T14:24:01;26.60;62.20
66708;DHT22;53622;0.000;0.000;2023-08-20T14:26:30;26.60;62.20
66708;DHT22;53622;0.000;0.000;2023-08-20T14:28:59;26.60;62.40
66708;DHT22;53622;0.000;0.000;2023-08-20T14:31:28;26.60;62.40
66708;DHT22;53622;0.000;0.000;2023-08-20T14:33:59;26.70;62.50
66708;DHT22;53622;0.000;0.000;2023-08-20T14:36:31;26.70;62.40
66708;DHT22;53622;0.000;0.000;2023-08-20T14:39:01;26.70;62.80
66708;DHT22;53622;0.000;0.000;2023-08-20T14:41:32;26.70;62.90
66708;DHT22;53622;0.000;0.000;2023-08-20T14:44:02;26.70;62.80
66708;DHT22;53622;0.000;0.000;2023-08-20T14:46:37;26.70;62.70
66708;DHT22;53622;0.000;0.000;2023-08-20T14:49:11;26.70;62.80
66708;DHT22;53622;0.000;0.000;2023-08-20T14:51:41;26.70;63.00
66708;DHT22;53622;0.000;0.000;2023-08-20T14:54:11;26.70;63.20
66708;DHT22;53622;0.000;0.000;2023-08-20T14:56:40;26.70;62.90
66708;DHT22;53622;0.000;0.000;2023-08-20T14:59:09;26.70;62.20
66708;DHT22;53622;0.000;0.000;2023-08-20T15:01:39;26.50;60.50
66708;DHT22;53622;0.000;0.000;2023-08-20T15:04:08;26.40;61.10
66708;DHT22;53622;0.000;0.000;2023-08-20T15:06:37;26.40;61.70
66708;DHT22;53622;0.000;0.000;2023-08-20T15:09:08;26.40;61.60
66708;DHT22;53622;0.000;0.000;2023-08-20T15:11:43;26.50;61.50
66708;DHT22;53622;0.000;0.000;2023-08-20T15:14:12;26.60;61.60
66708;DHT22;53622;0.000;0.000;2023-08-20T15:16:42;26.70;61.40
66708;DHT22;53622;0.000;0.000;2023-08-20T15:19:11;26.70;61.50
66708;DHT22;53622;0.000;0.000;2023-08-20T15:21:41;26.70;61.40
66708;DHT22;53622;0.000;0.000;2023-08-20T15:24:12;26.70;61.30
66708;DHT22;53622;0.000;0.000;2023-08-20T15:26:41;26.70;61.40
66708;DHT22;53622;0.000;0.000;2023-08-20T15:29:11;26.80;61.50
66708;DHT22;53622;0.000;0.000;2023-08-20T15:31:40;26.80;61.50
66708;DHT22;53622;0.000;0.000;2023-08-20T15:34:10;26.80;61.40
66708;DHT22;53622;0.000;0.000;2023-08-20T15:36:40;26.80;61.40
66708;DHT22;53622;0.000;0.000;2023-08-20T15:39:11;26.80;61.50
66708;DHT22;53622;0.000;0.000;2023-08-20T15:41:40;26.80;61.50
66708;DHT22;53622;0.000;0.000;2023-08-20T15:44:14;26.80;61.60
66708;DHT22;53622;0.000;0.000;2023-08-20T15:46:44;26.80;61.60
66708;DHT22;53622;0.000;0.000;2023-08-20T15:49:15;26.80;61.70
66708;DHT22;53622;0.000;0.000;2023-08-20T15:51:44;26.80;61.70
66708;DHT22;53622;0.000;0.000;2023-08-20T15:54:16;26.90;61.80
66708;DHT22;53622;0.000;0.000;2023-08-20T15:56:46;26.90;61.90
66708;DHT22;53622;0.000;0.000;2023-08-20T15:59:16;26.90;61.80
66708;DHT22;53622;0.000;0.000;2023-08-20T16:01:45;26.90;61.80
66708;DHT22;53622;0.000;0.000;2023-08-20T16:04:15;26.80;62.00
66708;DHT22;53622;0.000;0.000;2023-08-20T16:06:44;26.80;62.20
66708;DHT22;53622;0.000;0.000;2023-08-20T16:09:15;26.90;62.00
66708;DHT22;53622;0.000;0.000;2023-08-20T16:11:53;26.90;62.00